sensor_id;sensor_type;location;lat;lon;timestamp;pressure;altitude;pressure_sealevel;temperature;humidity
4705;BME280;2366;51.332;6.610;2023-12-29T00:01:31;100791.63;;;15.22;54.63
4705;BME280;2366;51.332;6.610;2023-12-29T00:03:56;100793.22;;;15.13;55.04
4705;BME280;2366;51.332;6.610;2023-12-29T00:06:22;100804.03;;;15.23;54.67
4705;BME280;2366;51.332;6.610;2023-12-29T00:08:47;100810.44;;;15.20;54.71
4705;BME280;2366;51.332;6.610;2023-12-29T00:11:17;100807.28;;;15.26;54.80
4705;BME280;2366;51.332;6.610;2023-12-29T00:13:42;100810.44;;;15.20;54.85
4705;BME280;2366;51.332;6.610;2023-12-29T00:16:07;100816.16;;;15.15;55.07
4705;BME280;2366;51.332;6.610;2023-12-29T00:18:33;100811.06;;;15.46;54.17
4705;BME280;2366;51.332;6.610;2023-12-29T00:20:58;100810.09;;;15.13;54.74
4705;BME280;2366;51.332;6.610;2023-12-29T00:23:23;100808.88;;;15.17;54.80
4705;BME280;2366;51.332;6.610;2023-12-29T00:25:49;100806.91;;;15.31;54.28
4705;BME280;2366;51.332;6.610;2023-12-29T00:28:14;100795.63;;;15.38;54.14
4705;BME280;2366;51.332;6.610;2023-12-29T00:30:40;100791.63;;;15.22;54.74
4705;BME280;2366;51.332;6.610;2023-12-29T00:33:05;100790.78;;;15.32;54.22
4705;BME280;2366;51.332;6.610;2023-12-29T00:35:31;100781.53;;;15.48;53.88
4705;BME280;2366;51.332;6.610;2023-12-29T00:37:56;100779.25;;;15.32;54.30
4705;BME280;2366;51.332;6.610;2023-12-29T00:40:22;100789.94;;;15.43;54.17
4705;BME280;2366;51.332;6.610;2023-12-29T00:42:47;100784.81;;;15.29;54.60
4705;BME280;2366;51.332;6.610;2023-12-29T00:45:12;100779.50;;;15.40;54.11
4705;BME280;2366;51.332;6.610;2023-12-29T00:47:38;100787.38;;;15.41;54.14
4705;BME280;2366;51.332;6.610;2023-12-29T00:50:04;100768.09;;;15.15;54.63
4705;BME280;2366;51.332;6.610;2023-12-29T00:52:29;100753.66;;;15.29;54.35
4705;BME280;2366;51.332;6.610;2023-12-29T00:54:54;100764.94;;;15.44;54.01
4705;BME280;2366;51.332;6.610;2023-12-29T00:57:20;100765.19;;;15.30;54.16
4705;BME280;2366;51.332;6.610;2023-12-29T00:59:47;100752.94;;;15.27;54.32
4705;BME280;2366;51.332;6.610;2023-12-29T01:02:12;100754.25;;;15.44;54.05
4705;BME280;2366;51.332;6.610;2023-12-29T01:04:38;100761.75;;;15.39;54.22
4705;BME280;2366;51.332;6.610;2023-12-29T01:07:04;100755.44;;;15.29;54.29
4705;BME280;2366;51.332;6.610;2023-12-29T01:09:29;100758.88;;;15.08;55.06
4705;BME280;2366;51.332;6.610;2023-12-29T01:11:55;100751.34;;;15.13;54.83
4705;BME280;2366;51.332;6.610;2023-12-29T01:14:20;100755.84;;;15.13;54.89
4705;BME280;2366;51.332;6.610;2023-12-29T01:16:45;100733.66;;;15.01;55.18
4705;BME280;2366;51.332;6.610;2023-12-29T01:19:11;100735.31;;;15.13;54.92
4705;BME280;2366;51.332;6.610;2023-12-29T01:21:39;100731.44;;;15.17;54.60
4705;BME280;2366;51.332;6.610;2023-12-29T01:24:05;100738.13;;;15.23;54.76
4705;BME280;2366;51.332;6.610;2023-12-29T01:26:36;100731.56;;;15.27;54.64
4705;BME280;2366;51.332;6.610;2023-12-29T01:29:01;100734.09;;;15.29;54.42
4705;BME280;2366;51.332;6.610;2023-12-29T01:31:29;100745.78;;;15.16;54.96
4705;BME280;2366;51.332;6.610;2023-12-29T01:33:55;100721.38;;;15.10;55.04
4705;BME280;2366;51.332;6.610;2023-12-29T01:36:21;100734.84;;;15.19;54.94
4705;BME280;2366;51.332;6.610;2023-12-29T01:38:46;100741.41;;;15.27;54.88
4705;BME280;2366;51.332;6.610;2023-12-29T01:41:11;100731.56;;;15.05;55.42
4705;BME280;2366;51.332;6.610;2023-12-29T01:46:26;100721.84;;;15.15;55.34
4705;BME280;2366;51.332;6.610;2023-12-29T01:48:53;100718.81;;;15.19;55.14
4705;BME280;2366;51.332;6.610;2023-12-29T01:51:21;100715.91;;;15.00;56.03
4705;BME280;2366;51.332;6.610;2023-12-29T01:53:49;100728.53;;;14.98;56.63
4705;BME280;2366;51.332;6.610;2023-12-29T01:56:16;100733.16;;;14.96;57.15
4705;BME280;2366;51.332;6.610;2023-12-29T01:58:43;100737.16;;;15.13;56.92
4705;BME280;2366;51.332;6.610;2023-12-29T02:01:09;100749.16;;;15.18;57.09
4705;BME280;2366;51.332;6.610;2023-12-29T02:03:35;100736.31;;;14.90;58.30
4705;BME280;2366;51.332;6.610;2023-12-29T02:06:01;100733.28;;;15.06;58.72
4705;BME280;2366;51.332;6.610;2023-12-29T02:08:27;100732.94;;;14.88;59.61
4705;BME280;2366;51.332;6.610;2023-12-29T02:10:52;100741.53;;;14.91;59.83
4705;BME280;2366;51.332;6.610;2023-12-29T02:13:18;100732.38;;;14.49;61.55
4705;BME280;2366;51.332;6.610;2023-12-29T02:15:45;100742.09;;;14.61;61.56
4705;BME280;2366;51.332;6.610;2023-12-29T02:18:14;100743.03;;;14.49;62.29
4705;BME280;2366;51.332;6.610;2023-12-29T02:20:41;100737.34;;;14.42;62.39
4705;BME280;2366;51.332;6.610;2023-12-29T02:23:07;100749.91;;;14.64;62.09
4705;BME280;2366;51.332;6.610;2023-12-29T02:25:34;100731.66;;;14.47;62.45
4705;BME280;2366;51.332;6.610;2023-12-29T02:28:05;100733.63;;;14.56;62.41
4705;BME280;2366;51.332;6.610;2023-12-29T02:31:07;100724.13;;;14.52;62.13
4705;BME280;2366;51.332;6.610;2023-12-29T02:33:38;100733.63;;;14.56;62.01
4705;BME280;2366;51.332;6.610;2023-12-29T02:36:05;100725.56;;;14.33;62.52
4705;BME280;2366;51.332;6.610;2023-12-29T02:38:32;100711.78;;;14.51;62.21
4705;BME280;2366;51.332;6.610;2023-12-29T02:40:58;100701.88;;;14.64;61.59
4705;BME280;2366;51.332;6.610;2023-12-29T02:43:24;100708.38;;;14.49;62.07
4705;BME280;2366;51.332;6.610;2023-12-29T02:45:50;100683.56;;;14.60;62.08
4705;BME280;2366;51.332;6.610;2023-12-29T02:48:15;100686.59;;;14.66;61.99
4705;BME280;2366;51.332;6.610;2023-12-29T02:50:41;100676.50;;;14.58;62.01
4705;BME280;2366;51.332;6.610;2023-12-29T02:53:06;100675.19;;;14.64;61.91
4705;BME280;2366;51.332;6.610;2023-12-29T02:55:31;100673.72;;;14.60;62.33
4705;BME280;2366;51.332;6.610;2023-12-29T02:57:57;100658.09;;;14.67;61.77
4705;BME280;2366;51.332;6.610;2023-12-29T03:00:22;100659.53;;;14.71;61.79
4705;BME280;2366;51.332;6.610;2023-12-29T03:02:48;100667.41;;;14.61;62.06
4705;BME280;2366;51.332;6.610;2023-12-29T03:05:14;100665.69;;;14.49;62.51
4705;BME280;2366;51.332;6.610;2023-12-29T03:07:40;100668.84;;;14.54;62.36
4705;BME280;2366;51.332;6.610;2023-12-29T03:10:06;100673.63;;;14.62;61.90
4705;BME280;2366;51.332;6.610;2023-12-29T03:12:32;100681.97;;;14.79;61.63
4705;BME280;2366;51.332;6.610;2023-12-29T03:14:57;100679.69;;;14.75;61.56
4705;BME280;2366;51.332;6.610;2023-12-29T03:17:23;100671.78;;;14.85;61.42
4705;BME280;2366;51.332;6.610;2023-12-29T03:19:48;100670.56;;;14.89;60.92
4705;BME280;2366;51.332;6.610;2023-12-29T03:22:13;100668.00;;;14.76;61.19
4705;BME280;2366;51.332;6.610;2023-12-29T03:24:42;100674.91;;;14.78;61.09
4705;BME280;2366;51.332;6.610;2023-12-29T03:27:08;100672.03;;;14.70;61.01
4705;BME280;2366;51.332;6.610;2023-12-29T03:29:33;100682.44;;;14.85;60.73
4705;BME280;2366;51.332;6.610;2023-12-29T03:31:58;100681.97;;;14.91;60.53
4705;BME280;2366;51.332;6.610;2023-12-29T03:34:24;100694.72;;;14.98;60.08
4705;BME280;2366;51.332;6.610;2023-12-29T03:36:49;100678.06;;;14.72;60.67
4705;BME280;2366;51.332;6.610;2023-12-29T03:39:14;100684.25;;;14.95;59.91
4705;BME280;2366;51.332;6.610;2023-12-29T03:41:40;100668.25;;;14.95;59.88
4705;BME280;2366;51.332;6.610;2023-12-29T03:44:05;100674.06;;;14.89;59.73
4705;BME280;2366;51.332;6.610;2023-12-29T03:46:31;100669.22;;;15.06;59.34
4705;BME280;2366;51.332;6.610;2023-12-29T03:48:56;100675.78;;;14.90;59.32
4705;BME280;2366;51.332;6.610;2023-12-29T03:51:22;100671.63;;;15.09;59.15
4705;BME280;2366;51.332;6.610;2023-12-29T03:53:47;100674.91;;;15.12;59.03
4705;BME280;2366;51.332;6.610;2023-12-29T03:56:15;100673.19;;;15.11;58.98
4705;BME280;2366;51.332;6.610;2023-12-29T03:58:47;100660.78;;;15.22;58.64
4705;BME280;2366;51.332;6.610;2023-12-29T04:01:13;100669.53;;;15.24;58.31
4705;BME280;2366;51.332;6.610;2023-12-29T04:03:39;100668.44;;;15.15;58.66
4705;BME280;2366;51.332;6.610;2023-12-29T04:06:05;100664.66;;;15.29;58.14
4705;BME280;2366;51.332;6.610;2023-12-29T04:08:31;100666.41;;;15.07;58.52
4705;BME280;2366;51.332;6.610;2023-12-29T04:10:57;100664.06;;;15.25;58.19
4705;BME280;2366;51.332;6.610;2023-12-29T04:13:22;100653.56;;;15.01;58.96
4705;BME280;2366;51.332;6.610;2023-12-29T04:15:48;100656.22;;;15.01;59.14
4705;BME280;2366;51.332;6.610;2023-12-29T04:18:13;100668.72;;;15.12;58.92
4705;BME280;2366;51.332;6.610;2023-12-29T04:20:39;100663.22;;;15.13;58.86
4705;BME280;2366;51.332;6.610;2023-12-29T04:23:06;100661.94;;;14.96;59.58
4705;BME280;2366;51.332;6.610;2023-12-29T04:25:32;100676.00;;;14.87;60.12
4705;BME280;2366;51.332;6.610;2023-12-29T04:27:57;100672.00;;;14.93;60.05
4705;BME280;2366;51.332;6.610;2023-12-29T04:30:23;100669.47;;;14.80;60.44
4705;BME280;2366;51.332;6.610;2023-12-29T04:32:48;100671.78;;;14.73;60.87
4705;BME280;2366;51.332;6.610;2023-12-29T04:35:14;100673.97;;;14.79;60.62
4705;BME280;2366;51.332;6.610;2023-12-29T04:37:41;100667.16;;;14.75;60.55
4705;BME280;2366;51.332;6.610;2023-12-29T04:40:07;100670.56;;;14.77;60.69
4705;BME280;2366;51.332;6.610;2023-12-29T04:42:32;100662.78;;;14.74;60.68
4705;BME280;2366;51.332;6.610;2023-12-29T04:44:58;100659.66;;;14.69;60.46
4705;BME280;2366;51.332;6.610;2023-12-29T04:47:23;100672.97;;;14.81;60.13
4705;BME280;2366;51.332;6.610;2023-12-29T04:49:48;100670.78;;;14.74;60.06
4705;BME280;2366;51.332;6.610;2023-12-29T04:52:14;100670.56;;;14.55;60.03
4705;BME280;2366;51.332;6.610;2023-12-29T04:54:39;100676.38;;;14.49;60.23
4705;BME280;2366;51.332;6.610;2023-12-29T04:57:04;100668.16;;;14.86;59.17
4705;BME280;2366;51.332;6.610;2023-12-29T04:59:30;100660.28;;;14.62;59.55
4705;BME280;2366;51.332;6.610;2023-12-29T05:01:55;100670.31;;;14.69;59.51
4705;BME280;2366;51.332;6.610;2023-12-29T05:04:20;100665.72;;;14.71;59.09
4705;BME280;2366;51.332;6.610;2023-12-29T05:06:46;100664.88;;;14.60;59.31
4705;BME280;2366;51.332;6.610;2023-12-29T05:09:11;100660.03;;;14.65;59.19
4705;BME280;2366;51.332;6.610;2023-12-29T05:11:36;100673.00;;;14.58;59.30
4705;BME280;2366;51.332;6.610;2023-12-29T05:14:02;100671.06;;;14.60;59.19
4705;BME280;2366;51.332;6.610;2023-12-29T05:16:27;100663.16;;;14.70;58.80
4705;BME280;2366;51.332;6.610;2023-12-29T05:18:53;100666.81;;;14.57;58.97
4705;BME280;2366;51.332;6.610;2023-12-29T05:21:18;100665.94;;;14.57;58.82
4705;BME280;2366;51.332;6.610;2023-12-29T05:23:45;100662.81;;;14.63;58.46
4705;BME280;2366;51.332;6.610;2023-12-29T05:26:11;100670.56;;;14.77;58.16
4705;BME280;2366;51.332;6.610;2023-12-29T05:28:37;100672.16;;;14.69;58.29
4705;BME280;2366;51.332;6.610;2023-12-29T05:31:02;100670.47;;;14.79;57.84
4705;BME280;2366;51.332;6.610;2023-12-29T05:33:31;100672.59;;;14.85;57.80
4705;BME280;2366;51.332;6.610;2023-12-29T05:35:56;100679.44;;;14.67;58.20
4705;BME280;2366;51.332;6.610;2023-12-29T05:38:22;100672.47;;;14.53;58.58
4705;BME280;2366;51.332;6.610;2023-12-29T05:40:47;100670.56;;;14.66;58.12
4705;BME280;2366;51.332;6.610;2023-12-29T05:43:13;100670.22;;;14.71;57.81
4705;BME280;2366;51.332;6.610;2023-12-29T05:45:38;100672.72;;;14.72;57.93
4705;BME280;2366;51.332;6.610;2023-12-29T05:48:04;100677.72;;;14.66;58.25
4705;BME280;2366;51.332;6.610;2023-12-29T05:50:29;100682.19;;;14.76;57.79
4705;BME280;2366;51.332;6.610;2023-12-29T05:52:55;100683.91;;;14.66;58.28
4705;BME280;2366;51.332;6.610;2023-12-29T05:55:20;100698.84;;;14.57;58.39
4705;BME280;2366;51.332;6.610;2023-12-29T05:57:45;100691.19;;;14.64;58.29
4705;BME280;2366;51.332;6.610;2023-12-29T06:00:11;100692.16;;;14.74;58.20
4705;BME280;2366;51.332;6.610;2023-12-29T06:02:40;100690.81;;;14.80;58.11
4705;BME280;2366;51.332;6.610;2023-12-29T06:05:07;100679.53;;;14.76;58.02
4705;BME280;2366;51.332;6.610;2023-12-29T06:07:33;100696.25;;;14.45;58.87
4705;BME280;2366;51.332;6.610;2023-12-29T06:09:58;100687.63;;;14.52;58.82
4705;BME280;2366;51.332;6.610;2023-12-29T06:12:24;100694.53;;;14.44;59.07
4705;BME280;2366;51.332;6.610;2023-12-29T06:14:49;100692.00;;;14.42;59.15
4705;BME280;2366;51.332;6.610;2023-12-29T06:17:15;100675.84;;;14.32;59.42
4705;BME280;2366;51.332;6.610;2023-12-29T06:19:41;100677.78;;;14.42;59.35
4705;BME280;2366;51.332;6.610;2023-12-29T06:22:06;100689.69;;;14.49;59.20
4705;BME280;2366;51.332;6.610;2023-12-29T06:24:39;100690.09;;;14.55;58.85
4705;BME280;2366;51.332;6.610;2023-12-29T06:27:04;100680.28;;;14.56;58.78
4705;BME280;2366;51.332;6.610;2023-12-29T06:29:30;100698.94;;;14.56;59.02
4705;BME280;2366;51.332;6.610;2023-12-29T06:31:55;100687.91;;;14.61;59.02
4705;BME280;2366;51.332;6.610;2023-12-29T06:34:21;100694.44;;;14.68;58.89
4705;BME280;2366;51.332;6.610;2023-12-29T06:36:46;100692.41;;;14.71;58.72
4705;BME280;2366;51.332;6.610;2023-12-29T06:39:12;100683.53;;;14.82;58.38
4705;BME280;2366;51.332;6.610;2023-12-29T06:41:37;100676.88;;;14.65;58.80
4705;BME280;2366;51.332;6.610;2023-12-29T06:44:02;100675.31;;;14.63;58.79
4705;BME280;2366;51.332;6.610;2023-12-29T06:46:28;100672.00;;;14.59;59.16
4705;BME280;2366;51.332;6.610;2023-12-29T06:48:53;100679.28;;;14.57;59.16
4705;BME280;2366;51.332;6.610;2023-12-29T06:51:19;100673.25;;;14.77;58.66
4705;BME280;2366;51.332;6.610;2023-12-29T06:53:48;100676.16;;;14.86;58.39
4705;BME280;2366;51.332;6.610;2023-12-29T06:56:16;100676.28;;;14.84;58.54
4705;BME280;2366;51.332;6.610;2023-12-29T06:58:43;100681.84;;;14.81;60.09
4705;BME280;2366;51.332;6.610;2023-12-29T07:01:08;100667.56;;;14.60;61.19
4705;BME280;2366;51.332;6.610;2023-12-29T07:03:34;100691.91;;;14.55;62.61
4705;BME280;2366;51.332;6.610;2023-12-29T07:06:03;100678.31;;;14.47;63.33
4705;BME280;2366;51.332;6.610;2023-12-29T07:08:28;100672.44;;;14.30;63.92
4705;BME280;2366;51.332;6.610;2023-12-29T07:10:54;100667.84;;;14.32;63.98
4705;BME280;2366;51.332;6.610;2023-12-29T07:13:19;100664.19;;;14.22;64.23
4705;BME280;2366;51.332;6.610;2023-12-29T07:15:46;100676.84;;;14.43;64.39
4705;BME280;2366;51.332;6.610;2023-12-29T07:18:12;100681.44;;;14.29;64.87
4705;BME280;2366;51.332;6.610;2023-12-29T07:20:37;100670.16;;;14.26;65.59
4705;BME280;2366;51.332;6.610;2023-12-29T07:23:03;100685.03;;;14.17;66.13
4705;BME280;2366;51.332;6.610;2023-12-29T07:25:28;100678.13;;;14.14;66.38
4705;BME280;2366;51.332;6.610;2023-12-29T07:27:54;100670.13;;;14.14;66.44
4705;BME280;2366;51.332;6.610;2023-12-29T07:30:19;100669.16;;;14.15;66.53
4705;BME280;2366;51.332;6.610;2023-12-29T07:32:44;100667.59;;;14.24;66.93
4705;BME280;2366;51.332;6.610;2023-12-29T07:35:10;100660.41;;;14.13;66.86
4705;BME280;2366;51.332;6.610;2023-12-29T07:37:35;100663.69;;;14.06;67.39
4705;BME280;2366;51.332;6.610;2023-12-29T07:40:01;100656.66;;;14.16;66.60
4705;BME280;2366;51.332;6.610;2023-12-29T07:42:26;100657.25;;;14.08;67.14
4705;BME280;2366;51.332;6.610;2023-12-29T07:44:52;100661.75;;;14.08;67.35
4705;BME280;2366;51.332;6.610;2023-12-29T07:47:17;100665.16;;;14.21;67.09
4705;BME280;2366;51.332;6.610;2023-12-29T07:49:42;100664.44;;;14.19;67.11
4705;BME280;2366;51.332;6.610;2023-12-29T07:52:08;100677.50;;;14.22;67.01
4705;BME280;2366;51.332;6.610;2023-12-29T07:54:34;100677.16;;;14.27;66.55
4705;BME280;2366;51.332;6.610;2023-12-29T07:56:59;100678.97;;;14.15;66.92
4705;BME280;2366;51.332;6.610;2023-12-29T07:59:24;100680.41;;;14.08;67.34
4705;BME280;2366;51.332;6.610;2023-12-29T08:01:50;100664.91;;;14.13;67.26
4705;BME280;2366;51.332;6.610;2023-12-29T08:04:15;100679.69;;;14.17;67.65
4705;BME280;2366;51.332;6.610;2023-12-29T08:06:41;100679.25;;;14.34;67.32
4705;BME280;2366;51.332;6.610;2023-12-29T08:09:06;100680.44;;;14.19;67.34
4705;BME280;2366;51.332;6.610;2023-12-29T08:11:33;100684.78;;;14.20;67.64
4705;BME280;2366;51.332;6.610;2023-12-29T08:13:58;100681.16;;;14.10;67.85
4705;BME280;2366;51.332;6.610;2023-12-29T08:16:23;100686.72;;;14.18;68.14
4705;BME280;2366;51.332;6.610;2023-12-29T08:18:49;100688.16;;;14.11;68.07
4705;BME280;2366;51.332;6.610;2023-12-29T08:21:21;100684.09;;;14.29;67.95
4705;BME280;2366;51.332;6.610;2023-12-29T08:23:47;100683.75;;;14.34;67.49
4705;BME280;2366;51.332;6.610;2023-12-29T08:26:13;100687.25;;;14.34;67.71
4705;BME280;2366;51.332;6.610;2023-12-29T08:28:39;100678.75;;;14.29;67.96
4705;BME280;2366;51.332;6.610;2023-12-29T08:31:05;100668.44;;;14.25;68.04
4705;BME280;2366;51.332;6.610;2023-12-29T08:33:30;100686.13;;;14.26;68.10
4705;BME280;2366;51.332;6.610;2023-12-29T08:35:56;100674.75;;;14.24;68.07
4705;BME280;2366;51.332;6.610;2023-12-29T08:38:26;100679.25;;;14.34;67.52
4705;BME280;2366;51.332;6.610;2023-12-29T08:40:51;100692.59;;;14.46;67.27
4705;BME280;2366;51.332;6.610;2023-12-29T08:43:17;100684.09;;;14.41;67.44
4705;BME280;2366;51.332;6.610;2023-12-29T08:45:46;100679.34;;;14.33;67.85
4705;BME280;2366;51.332;6.610;2023-12-29T08:48:12;100686.50;;;14.32;67.67
4705;BME280;2366;51.332;6.610;2023-12-29T08:50:37;100680.34;;;14.32;67.72
4705;BME280;2366;51.332;6.610;2023-12-29T08:53:02;100685.44;;;14.46;67.42
4705;BME280;2366;51.332;6.610;2023-12-29T08:55:28;100702.16;;;14.48;67.21
4705;BME280;2366;51.332;6.610;2023-12-29T08:57:53;100706.47;;;14.62;66.52
4705;BME280;2366;51.332;6.610;2023-12-29T09:00:20;100700.78;;;14.67;66.60
4705;BME280;2366;51.332;6.610;2023-12-29T09:02:45;100706.69;;;14.59;66.81
4705;BME280;2366;51.332;6.610;2023-12-29T09:05:11;100702.72;;;14.76;66.38
4705;BME280;2366;51.332;6.610;2023-12-29T09:07:37;100702.41;;;14.45;67.16
4705;BME280;2366;51.332;6.610;2023-12-29T09:10:02;100706.66;;;14.36;67.64
4705;BME280;2366;51.332;6.610;2023-12-29T09:12:28;100686.69;;;14.65;66.93
4705;BME280;2366;51.332;6.610;2023-12-29T09:14:54;100692.16;;;14.63;66.81
4705;BME280;2366;51.332;6.610;2023-12-29T09:17:19;100688.53;;;14.75;66.65
4705;BME280;2366;51.332;6.610;2023-12-29T09:19:44;100687.91;;;14.72;66.92
4705;BME280;2366;51.332;6.610;2023-12-29T09:22:10;100682.94;;;14.78;66.74
4705;BME280;2366;51.332;6.610;2023-12-29T09:24:35;100680.03;;;14.70;66.74
4705;BME280;2366;51.332;6.610;2023-12-29T09:27:00;100699.19;;;14.75;66.60
4705;BME280;2366;51.332;6.610;2023-12-29T09:29:26;100702.59;;;14.77;66.53
4705;BME280;2366;51.332;6.610;2023-12-29T09:31:51;100706.47;;;14.62;67.25
4705;BME280;2366;51.332;6.610;2023-12-29T09:34:18;100718.97;;;14.62;67.64
4705;BME280;2366;51.332;6.610;2023-12-29T09:36:43;100727.94;;;14.61;67.50
4705;BME280;2366;51.332;6.610;2023-12-29T09:39:08;100707.44;;;14.72;67.67
4705;BME280;2366;51.332;6.610;2023-12-29T09:41:37;100737.28;;;14.89;67.57
4705;BME280;2366;51.332;6.610;2023-12-29T09:44:13;100735.09;;;14.94;67.90
4705;BME280;2366;51.332;6.610;2023-12-29T09:46:39;100756.19;;;14.74;68.38
4705;BME280;2366;51.332;6.610;2023-12-29T09:49:08;100756.56;;;14.70;68.81
4705;BME280;2366;51.332;6.610;2023-12-29T09:51:34;100763.34;;;14.85;68.74
4705;BME280;2366;51.332;6.610;2023-12-29T09:54:01;100747.22;;;14.64;69.31
4705;BME280;2366;51.332;6.610;2023-12-29T09:56:27;100748.19;;;14.63;70.01
4705;BME280;2366;51.332;6.610;2023-12-29T09:58:54;100745.72;;;14.49;70.50
4705;BME280;2366;51.332;6.610;2023-12-29T10:01:21;100751.69;;;14.17;72.47
4705;BME280;2366;51.332;6.610;2023-12-29T10:03:47;100750.69;;;14.18;73.15
4705;BME280;2366;51.332;6.610;2023-12-29T10:06:18;100739.88;;;14.44;71.80
4705;BME280;2366;51.332;6.610;2023-12-29T10:08:45;100716.94;;;14.41;72.04
4705;BME280;2366;51.332;6.610;2023-12-29T10:11:14;100716.56;;;14.23;72.71
4705;BME280;2366;51.332;6.610;2023-12-29T10:13:42;100716.22;;;14.39;72.50
4705;BME280;2366;51.332;6.610;2023-12-29T10:16:32;100715.84;;;14.32;72.59
4705;BME280;2366;51.332;6.610;2023-12-29T10:21:48;100685.00;;;14.06;73.92
4705;BME280;2366;51.332;6.610;2023-12-29T10:24:19;100680.91;;;14.13;73.46
4705;BME280;2366;51.332;6.610;2023-12-29T10:26:46;100700.78;;;14.20;73.83
4705;BME280;2366;51.332;6.610;2023-12-29T10:29:12;100691.81;;;14.10;73.71
4705;BME280;2366;51.332;6.610;2023-12-29T10:31:38;100693.88;;;14.17;73.27
4705;BME280;2366;51.332;6.610;2023-12-29T10:34:21;100696.91;;;14.24;73.78
4705;BME280;2366;51.332;6.610;2023-12-29T10:37:00;100702.78;;;14.52;72.94
4705;BME280;2366;51.332;6.610;2023-12-29T10:39:28;100707.78;;;14.56;71.52
4705;BME280;2366;51.332;6.610;2023-12-29T10:42:06;100708.16;;;14.74;70.98
4705;BME280;2366;51.332;6.610;2023-12-29T10:44:37;100706.09;;;15.00;70.63
4705;BME280;2366;51.332;6.610;2023-12-29T10:47:09;100709.59;;;15.12;68.78
4705;BME280;2366;51.332;6.610;2023-12-29T10:49:35;100707.16;;;15.20;69.50
4705;BME280;2366;51.332;6.610;2023-12-29T10:52:11;100712.50;;;15.20;68.77
4705;BME280;2366;51.332;6.610;2023-12-29T10:54:37;100711.28;;;15.36;68.83
4705;BME280;2366;51.332;6.610;2023-12-29T10:57:03;100710.78;;;15.31;68.86
4705;BME280;2366;51.332;6.610;2023-12-29T10:59:28;100712.44;;;15.43;68.75
4705;BME280;2366;51.332;6.610;2023-12-29T11:01:54;100711.72;;;15.41;68.64
4705;BME280;2366;51.332;6.610;2023-12-29T11:04:22;100709.34;;;15.27;68.83
4705;BME280;2366;51.332;6.610;2023-12-29T11:06:47;100711.50;;;15.44;68.69
4705;BME280;2366;51.332;6.610;2023-12-29T11:09:13;100716.31;;;15.50;67.85
4705;BME280;2366;51.332;6.610;2023-12-29T11:11:39;100712.03;;;15.70;67.73
4705;BME280;2366;51.332;6.610;2023-12-29T11:14:05;100713.63;;;15.61;67.53
4705;BME280;2366;51.332;6.610;2023-12-29T11:16:31;100715.81;;;15.56;68.17
4705;BME280;2366;51.332;6.610;2023-12-29T11:18:58;100708.50;;;15.81;67.10
4705;BME280;2366;51.332;6.610;2023-12-29T11:21:25;100711.47;;;15.55;67.86
4705;BME280;2366;51.332;6.610;2023-12-29T11:23:51;100709.13;;;15.62;67.18
4705;BME280;2366;51.332;6.610;2023-12-29T11:26:18;100716.53;;;15.58;67.57
4705;BME280;2366;51.332;6.610;2023-12-29T11:28:46;100715.88;;;15.34;68.23
4705;BME280;2366;51.332;6.610;2023-12-29T11:31:11;100716.06;;;15.53;67.90
4705;BME280;2366;51.332;6.610;2023-12-29T11:33:43;100729.41;;;15.65;67.58
4705;BME280;2366;51.332;6.610;2023-12-29T11:36:18;100730.44;;;15.85;67.16
4705;BME280;2366;51.332;6.610;2023-12-29T11:41:40;100712.78;;;15.93;66.72
4705;BME280;2366;51.332;6.610;2023-12-29T11:44:07;100717.75;;;15.54;67.21
4705;BME280;2366;51.332;6.610;2023-12-29T11:46:40;100718.81;;;15.63;67.05
4705;BME280;2366;51.332;6.610;2023-12-29T11:49:08;100709.84;;;15.75;67.43
4705;BME280;2366;51.332;6.610;2023-12-29T11:51:41;100707.19;;;15.64;67.86
4705;BME280;2366;51.332;6.610;2023-12-29T11:54:10;100707.16;;;15.75;67.62
4705;BME280;2366;51.332;6.610;2023-12-29T11:56:40;100701.69;;;15.77;67.75
4705;BME280;2366;51.332;6.610;2023-12-29T11:59:25;100710.56;;;15.77;67.68
4705;BME280;2366;51.332;6.610;2023-12-29T12:01:54;100701.88;;;15.85;67.73
4705;BME280;2366;51.332;6.610;2023-12-29T12:04:41;100699.03;;;15.77;67.47
4705;BME280;2366;51.332;6.610;2023-12-29T12:07:17;100687.56;;;15.43;68.73
4705;BME280;2366;51.332;6.610;2023-12-29T12:09:42;100693.28;;;15.38;68.54
4705;BME280;2366;51.332;6.610;2023-12-29T12:12:09;100687.94;;;15.38;68.99
4705;BME280;2366;51.332;6.610;2023-12-29T12:14:48;100701.06;;;15.30;69.54
4705;BME280;2366;51.332;6.610;2023-12-29T12:17:31;100686.66;;;15.21;69.63
4705;BME280;2366;51.332;6.610;2023-12-29T12:20:00;100693.38;;;14.82;71.02
4705;BME280;2366;51.332;6.610;2023-12-29T12:22:30;100691.66;;;14.92;71.12
4705;BME280;2366;51.332;6.610;2023-12-29T12:24:56;100690.72;;;14.70;71.64
4705;BME280;2366;51.332;6.610;2023-12-29T12:27:24;100693.34;;;14.59;71.89
4705;BME280;2366;51.332;6.610;2023-12-29T12:30:00;100681.72;;;14.60;72.27
4705;BME280;2366;51.332;6.610;2023-12-29T12:32:26;100682.47;;;14.62;72.46
4705;BME280;2366;51.332;6.610;2023-12-29T12:34:52;100684.75;;;14.78;72.57
4705;BME280;2366;51.332;6.610;2023-12-29T12:39:46;100665.22;;;14.89;72.51
4705;BME280;2366;51.332;6.610;2023-12-29T12:42:11;100673.09;;;14.90;73.14
4705;BME280;2366;51.332;6.610;2023-12-29T12:44:41;100669.81;;;14.98;72.40
4705;BME280;2366;51.332;6.610;2023-12-29T12:47:09;100665.94;;;14.91;71.55
4705;BME280;2366;51.332;6.610;2023-12-29T12:49:39;100661.81;;;14.98;72.37
4705;BME280;2366;51.332;6.610;2023-12-29T12:52:05;100661.09;;;15.07;72.34
4705;BME280;2366;51.332;6.610;2023-12-29T12:54:31;100661.78;;;15.09;72.16
4705;BME280;2366;51.332;6.610;2023-12-29T12:56:57;100656.22;;;15.01;72.37
4705;BME280;2366;51.332;6.610;2023-12-29T12:59:22;100641.75;;;15.15;72.01
4705;BME280;2366;51.332;6.610;2023-12-29T13:01:48;100635.81;;;15.11;72.50
4705;BME280;2366;51.332;6.610;2023-12-29T13:04:13;100650.13;;;15.10;72.85
4705;BME280;2366;51.332;6.610;2023-12-29T13:06:43;100640.66;;;15.17;72.23
4705;BME280;2366;51.332;6.610;2023-12-29T13:09:11;100631.03;;;15.26;71.81
4705;BME280;2366;51.332;6.610;2023-12-29T13:11:38;100637.28;;;15.04;72.39
4705;BME280;2366;51.332;6.610;2023-12-29T13:14:05;100637.56;;;15.01;72.89
4705;BME280;2366;51.332;6.610;2023-12-29T13:16:34;100640.69;;;15.06;72.33
4705;BME280;2366;51.332;6.610;2023-12-29T13:21:48;100629.25;;;15.27;71.96